createdAt,value
2022-12-02T00:00:50.465Z,20.98
2022-12-02T00:03:19.606Z,20.33
2022-12-02T00:05:50.953Z,20.55
2022-12-02T00:08:22.370Z,20.05
2022-12-02T00:10:49.834Z,19.38
2022-12-02T00:13:30.165Z,19.75
2022-12-02T00:16:01.363Z,18.65
2022-12-02T00:18:28.582Z,17.63
2022-12-02T00:20:55.639Z,17.17
2022-12-02T00:23:22.474Z,17.88
2022-12-02T00:25:50.946Z,17.42
2022-12-02T00:28:17.807Z,18.42
2022-12-02T00:30:44.621Z,16.98
2022-12-02T00:33:11.776Z,16.63
2022-12-02T00:35:38.620Z,18.90
2022-12-02T00:38:05.497Z,17.00
2022-12-02T00:40:32.330Z,17.67
2022-12-02T00:43:21.011Z,16.85
2022-12-02T00:46:07.004Z,19.27
2022-12-02T00:48:34.363Z,19.17
2022-12-02T00:51:01.147Z,18.85
2022-12-02T00:53:27.958Z,19.90
2022-12-02T00:55:54.742Z,20.48
2022-12-02T00:58:21.582Z,19.65
2022-12-02T01:00:48.379Z,19.85
2022-12-02T01:03:15.258Z,19.02
2022-12-02T01:05:42.010Z,20.50
2022-12-02T01:08:08.874Z,18.08
2022-12-02T01:10:35.712Z,18.58
2022-12-02T01:13:02.461Z,18.50
2022-12-02T01:15:29.228Z,17.73
2022-12-02T01:17:55.957Z,16.77
2022-12-02T01:20:22.811Z,19.00
2022-12-02T01:22:49.567Z,17.85
2022-12-02T01:25:16.408Z,17.50
2022-12-02T01:27:43.136Z,18.05
2022-12-02T01:30:10.415Z,16.85
2022-12-02T01:32:37.188Z,15.23
2022-12-02T01:35:04.212Z,15.57
2022-12-02T01:37:30.974Z,16.80
2022-12-02T01:39:57.735Z,17.52
2022-12-02T01:42:24.473Z,18.63
2022-12-02T01:44:51.526Z,17.17
2022-12-02T01:47:18.544Z,16.95
2022-12-02T01:49:45.311Z,18.58
2022-12-02T01:52:12.124Z,16.20
2022-12-02T01:54:38.866Z,15.15
2022-12-02T01:57:10.162Z,16.05
2022-12-02T01:59:36.960Z,14.43
2022-12-02T02:02:03.779Z,14.95
2022-12-02T02:04:30.551Z,16.05
2022-12-02T02:06:57.308Z,14.23
2022-12-02T02:09:24.027Z,16.67
2022-12-02T02:11:50.774Z,16.25
2022-12-02T02:14:17.531Z,16.27
2022-12-02T02:16:44.399Z,16.02
2022-12-02T02:19:13.257Z,16.17
2022-12-02T02:21:42.871Z,14.90
2022-12-02T02:24:09.618Z,15.07
2022-12-02T02:26:36.374Z,15.02
2022-12-02T02:29:03.079Z,14.48
2022-12-02T02:31:29.886Z,13.95
2022-12-02T02:33:56.656Z,13.00
2022-12-02T02:36:23.429Z,14.57
2022-12-02T02:38:50.143Z,14.70
2022-12-02T02:41:16.934Z,15.15
2022-12-02T02:43:43.695Z,15.13
2022-12-02T02:46:10.536Z,17.08
2022-12-02T02:48:37.507Z,15.93
2022-12-02T02:51:04.332Z,16.67
2022-12-02T02:53:31.095Z,16.90
2022-12-02T02:55:57.915Z,16.20
2022-12-02T02:58:25.840Z,15.05
2022-12-02T03:00:59.750Z,15.70
2022-12-02T03:03:28.062Z,15.15
2022-12-02T03:05:54.828Z,15.13
2022-12-02T03:08:22.008Z,15.45
2022-12-02T03:10:48.738Z,15.32
2022-12-02T03:13:15.595Z,16.05
2022-12-02T03:15:42.351Z,14.10
2022-12-02T03:18:09.278Z,17.40
2022-12-02T03:20:36.002Z,13.90
2022-12-02T03:23:02.766Z,14.43
2022-12-02T03:25:29.542Z,12.27
2022-12-02T03:27:56.403Z,13.77
2022-12-02T03:30:23.104Z,15.75
2022-12-02T03:32:49.809Z,13.52
2022-12-02T03:35:16.610Z,13.20
2022-12-02T03:37:43.321Z,14.70
2022-12-02T03:40:10.464Z,14.40
2022-12-02T03:42:37.491Z,14.45
2022-12-02T03:45:04.630Z,14.32
2022-12-02T03:47:31.374Z,12.15
2022-12-02T03:49:58.147Z,13.18
2022-12-02T03:52:24.924Z,15.38
2022-12-02T03:54:55.135Z,12.63
2022-12-02T03:57:22.559Z,13.40
2022-12-02T03:59:49.347Z,12.77
2022-12-02T04:02:16.110Z,13.30
2022-12-02T04:04:42.910Z,12.00
2022-12-02T04:07:09.659Z,12.13
2022-12-02T04:09:36.413Z,15.30
2022-12-02T04:12:03.184Z,11.48
2022-12-02T04:14:29.975Z,11.82
2022-12-02T04:16:56.781Z,11.45
2022-12-02T04:19:24.080Z,12.35
2022-12-02T04:21:51.444Z,10.95
2022-12-02T04:24:18.212Z,11.93
2022-12-02T04:26:45.032Z,12.57
2022-12-02T04:29:11.876Z,12.77
2022-12-02T04:31:38.682Z,11.05
2022-12-02T04:34:05.446Z,11.98
2022-12-02T04:36:32.285Z,11.55
2022-12-02T04:38:58.986Z,10.68
2022-12-02T04:41:25.772Z,11.98
2022-12-02T04:43:52.504Z,12.95
2022-12-02T04:46:19.312Z,12.48
2022-12-02T04:48:46.196Z,11.98
2022-12-02T04:51:12.924Z,10.40
2022-12-02T04:53:39.683Z,9.98
2022-12-02T04:56:06.563Z,9.15
2022-12-02T04:58:33.345Z,10.13
2022-12-02T05:01:00.080Z,8.93
2022-12-02T05:03:26.801Z,9.10
2022-12-02T05:05:53.703Z,12.40
2022-12-02T05:08:20.524Z,10.38
2022-12-02T05:10:47.259Z,10.88
2022-12-02T05:13:13.977Z,10.60
2022-12-02T05:15:40.760Z,11.93
2022-12-02T05:18:07.598Z,10.40
2022-12-02T05:20:34.436Z,11.15
2022-12-02T05:23:01.167Z,10.45
2022-12-02T05:25:27.867Z,11.70
2022-12-02T05:27:55.858Z,10.00
2022-12-02T05:30:22.589Z,11.70
2022-12-02T05:32:49.350Z,13.05
2022-12-02T05:35:16.200Z,11.68
2022-12-02T05:37:42.894Z,11.30
2022-12-02T05:40:10.332Z,11.05
2022-12-02T05:42:37.074Z,11.57
2022-12-02T05:45:13.617Z,9.90
2022-12-02T05:47:40.350Z,10.88
2022-12-02T05:50:13.709Z,10.77
2022-12-02T05:52:40.506Z,10.80
2022-12-02T05:55:18.460Z,11.60
2022-12-02T05:57:46.312Z,11.65
2022-12-02T06:00:14.716Z,11.77
2022-12-02T06:02:52.793Z,11.35
2022-12-02T06:05:27.448Z,11.48
2022-12-02T06:07:56.736Z,9.70
2022-12-02T06:10:29.209Z,10.57
2022-12-02T06:13:01.488Z,11.57
2022-12-02T06:15:36.303Z,12.52
2022-12-02T06:18:09.938Z,11.35
2022-12-02T06:20:36.706Z,11.40
2022-12-02T06:23:03.831Z,9.77
2022-12-02T06:25:31.499Z,10.20
2022-12-02T06:28:28.819Z,9.88
2022-12-02T06:30:59.729Z,9.68
2022-12-02T06:33:31.375Z,10.73
2022-12-02T06:35:59.229Z,11.32
2022-12-02T06:38:30.959Z,11.07
2022-12-02T06:40:59.734Z,11.00
2022-12-02T06:43:30.920Z,11.07
2022-12-02T06:45:58.080Z,11.27
2022-12-02T06:48:34.169Z,9.88
2022-12-02T06:51:16.057Z,9.88
2022-12-02T06:53:43.097Z,9.63
2022-12-02T06:56:25.870Z,9.43
2022-12-02T06:59:03.378Z,9.10
2022-12-02T07:01:30.680Z,8.48
2022-12-02T07:04:01.840Z,9.18
2022-12-02T07:06:29.424Z,9.38
2022-12-02T07:08:57.462Z,9.13
2022-12-02T07:11:51.431Z,8.73
2022-12-02T07:14:29.436Z,9.88
2022-12-02T07:16:57.855Z,9.05
2022-12-02T07:19:30.269Z,9.40
2022-12-02T07:21:57.003Z,9.10
2022-12-02T07:24:23.918Z,9.48
2022-12-02T07:26:50.998Z,7.97
2022-12-02T07:29:26.439Z,8.88
2022-12-02T07:31:53.290Z,9.23
2022-12-02T07:34:20.074Z,9.02
2022-12-02T07:36:46.928Z,8.90
2022-12-02T07:39:13.643Z,9.38
2022-12-02T07:41:40.434Z,9.43
2022-12-02T07:44:07.213Z,9.07
2022-12-02T07:46:34.083Z,8.20
2022-12-02T07:49:00.846Z,9.90
2022-12-02T07:51:27.618Z,9.07
2022-12-02T07:53:54.322Z,9.88
2022-12-02T07:56:21.086Z,9.13
2022-12-02T07:59:11.325Z,8.60
2022-12-02T08:01:34.699Z,9.25
2022-12-02T08:04:01.597Z,8.73
2022-12-02T08:06:28.369Z,10.43
2022-12-02T08:08:55.073Z,9.30
2022-12-02T08:11:21.824Z,8.88
2022-12-02T08:13:48.585Z,9.38
2022-12-02T08:16:15.388Z,9.65
2022-12-02T08:18:42.144Z,9.35
2022-12-02T08:21:09.716Z,9.07
2022-12-02T08:23:37.020Z,10.40
2022-12-02T08:26:04.140Z,10.35
2022-12-02T08:28:30.846Z,9.05
2022-12-02T08:30:57.619Z,9.57
2022-12-02T08:33:24.445Z,8.68
2022-12-02T08:35:51.144Z,8.93
2022-12-02T08:38:17.943Z,8.65
2022-12-02T08:40:44.689Z,10.27
2022-12-02T08:43:11.610Z,7.97
2022-12-02T08:45:38.376Z,9.48
2022-12-02T08:48:05.205Z,9.07
2022-12-02T08:50:32.440Z,9.50
2022-12-02T08:52:59.138Z,9.23
2022-12-02T08:55:26.668Z,9.10
2022-12-02T08:57:54.886Z,10.63
2022-12-02T09:00:21.896Z,10.27
2022-12-02T09:02:48.859Z,9.35
2022-12-02T09:05:15.847Z,9.45
2022-12-02T09:07:42.614Z,9.40
2022-12-02T09:10:11.904Z,10.15
2022-12-02T09:12:38.694Z,8.73
2022-12-02T09:15:05.902Z,9.98
2022-12-02T09:17:32.669Z,9.55
2022-12-02T09:19:59.493Z,9.80
2022-12-02T09:22:26.238Z,10.10
2022-12-02T09:24:53.268Z,9.45
2022-12-02T09:27:20.228Z,10.63
2022-12-02T09:29:47.071Z,10.25
2022-12-02T09:32:13.794Z,10.20
2022-12-02T09:34:40.530Z,10.88
2022-12-02T09:37:07.425Z,11.25
2022-12-02T09:39:38.806Z,10.48
2022-12-02T09:42:07.387Z,10.85
2022-12-02T09:44:34.183Z,11.23
2022-12-02T09:47:00.969Z,9.50
2022-12-02T09:49:27.781Z,10.10
2022-12-02T09:51:56.030Z,12.60
2022-12-02T09:54:22.819Z,9.82
2022-12-02T09:56:49.570Z,10.52
2022-12-02T09:59:16.727Z,10.52
2022-12-02T10:01:46.017Z,9.43
2022-12-02T10:04:13.972Z,9.85
2022-12-02T10:06:41.356Z,10.98
2022-12-02T10:09:13.389Z,10.75
2022-12-02T10:11:40.106Z,12.02
2022-12-02T10:14:07.176Z,10.07
2022-12-02T10:16:34.308Z,10.32
2022-12-02T10:19:01.986Z,10.90
2022-12-02T10:21:29.033Z,10.20
2022-12-02T10:23:57.938Z,10.85
2022-12-02T10:26:24.970Z,9.05
2022-12-02T10:29:06.366Z,12.05
2022-12-02T10:31:33.315Z,11.45
2022-12-02T10:34:02.261Z,10.50
2022-12-02T10:36:42.169Z,12.25
2022-12-02T10:39:21.694Z,12.07
2022-12-02T10:42:07.878Z,11.63
2022-12-02T10:44:36.233Z,12.68
2022-12-02T10:47:17.409Z,10.88
2022-12-02T10:49:48.596Z,10.77
2022-12-02T10:52:15.811Z,10.82
2022-12-02T10:54:45.739Z,11.27
2022-12-02T10:57:16.772Z,11.15
2022-12-02T10:59:43.519Z,12.75
2022-12-02T11:02:26.502Z,12.07
2022-12-02T11:04:53.653Z,11.50
2022-12-02T11:07:21.791Z,10.82
2022-12-02T11:09:52.425Z,10.88
2022-12-02T11:12:35.235Z,10.40
2022-12-02T11:15:02.163Z,11.02
2022-12-02T11:18:01.491Z,11.80
2022-12-02T11:20:47.421Z,10.55
2022-12-02T11:23:33.577Z,11.73
2022-12-02T11:26:04.419Z,10.15
2022-12-02T11:28:32.242Z,11.32
2022-12-02T11:31:11.601Z,10.50
2022-12-02T11:33:47.433Z,10.60
2022-12-02T11:36:24.116Z,10.85
2022-12-02T11:41:18.459Z,10.88
2022-12-02T11:43:48.233Z,9.88
2022-12-02T11:46:22.639Z,10.73
2022-12-02T11:48:56.235Z,11.73
2022-12-02T11:51:29.135Z,10.57
2022-12-02T11:53:56.011Z,11.50
2022-12-02T11:56:22.810Z,10.10
2022-12-02T11:58:49.607Z,12.00
2022-12-02T12:01:18.718Z,11.50
2022-12-02T12:03:49.707Z,12.07
2022-12-02T12:06:17.199Z,9.40
2022-12-02T12:08:49.329Z,11.23
2022-12-02T12:11:26.031Z,11.35
2022-12-02T12:14:11.195Z,11.43
2022-12-02T12:16:47.522Z,10.57
2022-12-02T12:19:17.181Z,9.88
2022-12-02T12:22:25.900Z,11.27
2022-12-02T12:24:53.056Z,9.98
2022-12-02T12:27:36.903Z,10.93
2022-12-02T12:30:06.256Z,10.93
2022-12-02T12:32:33.122Z,10.60
2022-12-02T12:34:59.957Z,10.32
2022-12-02T12:37:26.780Z,12.13
2022-12-02T12:39:53.595Z,11.10
2022-12-02T12:42:20.406Z,11.15
2022-12-02T12:44:47.267Z,11.90
2022-12-02T12:47:14.045Z,12.10
2022-12-02T12:49:40.825Z,12.60
2022-12-02T12:52:07.604Z,12.52
2022-12-02T12:54:35.921Z,12.35
2022-12-02T12:57:02.927Z,10.80
2022-12-02T12:59:29.802Z,12.70
2022-12-02T13:01:56.648Z,11.18
2022-12-02T13:04:23.577Z,10.75
2022-12-02T13:06:50.423Z,12.05
2022-12-02T13:09:17.220Z,11.02
2022-12-02T13:11:44.436Z,10.82
2022-12-02T13:14:11.218Z,10.23
2022-12-02T13:16:38.074Z,10.57
2022-12-02T13:19:06.155Z,10.57
2022-12-02T13:21:33.160Z,11.43
2022-12-02T13:23:59.993Z,10.35
2022-12-02T13:26:26.699Z,10.70
2022-12-02T13:28:53.591Z,12.00
2022-12-02T13:31:20.653Z,10.02
2022-12-02T13:33:47.510Z,11.32
2022-12-02T13:36:14.322Z,13.02
2022-12-02T13:38:41.046Z,10.20
2022-12-02T13:41:07.860Z,10.68
2022-12-02T13:43:34.611Z,11.25
2022-12-02T13:46:01.502Z,10.90
2022-12-02T13:48:28.289Z,10.55
2022-12-02T13:51:02.677Z,11.00
2022-12-02T13:53:29.489Z,10.95
2022-12-02T13:55:56.282Z,11.07
2022-12-02T13:58:22.997Z,11.60
2022-12-02T14:00:49.725Z,10.00
2022-12-02T14:03:16.507Z,11.07
2022-12-02T14:05:43.371Z,9.93
2022-12-02T14:08:10.246Z,11.77
2022-12-02T14:10:37.005Z,11.35
2022-12-02T14:13:03.958Z,11.75
2022-12-02T14:15:30.839Z,10.57
2022-12-02T14:17:57.667Z,11.68
2022-12-02T14:20:24.409Z,11.07
2022-12-02T14:22:51.224Z,10.90
2022-12-02T14:25:18.084Z,11.02
2022-12-02T14:27:44.827Z,12.32
2022-12-02T14:30:12.178Z,11.50
2022-12-02T14:32:39.140Z,10.90
2022-12-02T14:35:06.658Z,11.10
2022-12-02T14:37:33.609Z,11.50
2022-12-02T14:40:00.415Z,11.73
2022-12-02T14:42:27.134Z,11.32
2022-12-02T14:44:54.337Z,11.38
2022-12-02T14:47:21.157Z,12.63
2022-12-02T14:49:48.061Z,11.10
2022-12-02T14:52:14.910Z,10.77
2022-12-02T14:54:41.841Z,12.27
2022-12-02T14:57:13.560Z,12.23
2022-12-02T14:59:41.296Z,12.55
2022-12-02T15:02:09.307Z,11.95
2022-12-02T15:04:36.209Z,11.40
2022-12-02T15:07:03.091Z,10.02
2022-12-02T15:09:29.815Z,8.68
2022-12-02T15:11:57.750Z,8.38
2022-12-02T15:14:24.578Z,7.75
2022-12-02T15:16:51.539Z,9.57
2022-12-02T15:19:21.024Z,9.00
2022-12-02T15:21:47.786Z,9.43
2022-12-02T15:24:14.619Z,10.88
2022-12-02T15:26:41.408Z,9.95
2022-12-02T15:29:08.208Z,10.23
2022-12-02T15:31:35.132Z,9.38
2022-12-02T15:34:02.068Z,10.32
2022-12-02T15:36:28.791Z,9.32
2022-12-02T15:38:55.491Z,9.40
2022-12-02T15:41:22.273Z,9.35
2022-12-02T15:43:53.526Z,9.73
2022-12-02T15:46:26.221Z,10.43
2022-12-02T15:48:54.374Z,9.55
2022-12-02T15:51:21.266Z,8.82
2022-12-02T15:53:48.058Z,8.75
2022-12-02T15:56:15.089Z,8.23
2022-12-02T15:58:41.894Z,8.95
2022-12-02T16:01:08.779Z,9.38
2022-12-02T16:03:35.674Z,8.23
2022-12-02T16:06:02.464Z,9.52
2022-12-02T16:08:29.175Z,9.38
2022-12-02T16:10:55.901Z,9.38
2022-12-02T16:13:25.792Z,8.52
2022-12-02T16:15:55.594Z,7.97
2022-12-02T16:18:22.417Z,9.18
2022-12-02T16:20:55.844Z,9.15
2022-12-02T16:23:22.908Z,10.55
2022-12-02T16:25:49.698Z,8.73
2022-12-02T16:28:16.847Z,7.47
2022-12-02T16:30:43.528Z,8.50
2022-12-02T16:33:10.262Z,9.27
2022-12-02T16:35:37.022Z,8.80
2022-12-02T16:38:07.688Z,8.35
2022-12-02T16:40:34.482Z,8.80
2022-12-02T16:43:02.200Z,9.65
2022-12-02T16:45:29.174Z,9.02
2022-12-02T16:47:56.006Z,10.57
2022-12-02T16:50:22.772Z,10.32
2022-12-02T16:52:49.614Z,10.10
2022-12-02T16:55:16.366Z,10.70
2022-12-02T16:57:43.269Z,11.98
2022-12-02T17:00:10.553Z,11.02
2022-12-02T17:02:37.490Z,10.93
2022-12-02T17:05:04.577Z,10.63
2022-12-02T17:07:31.510Z,11.35
2022-12-02T17:09:58.282Z,10.30
2022-12-02T17:12:25.113Z,10.82
2022-12-02T17:14:54.986Z,10.85
2022-12-02T17:17:44.074Z,11.27
2022-12-02T17:20:09.861Z,9.73
2022-12-02T17:22:36.678Z,10.23
2022-12-02T17:25:03.585Z,11.50
2022-12-02T17:27:30.425Z,10.68
2022-12-02T17:29:57.315Z,11.20
2022-12-02T17:32:24.116Z,10.45
2022-12-02T17:34:51.127Z,11.45
2022-12-02T17:37:19.510Z,10.25
2022-12-02T17:39:46.333Z,11.43
2022-12-02T17:42:13.360Z,10.63
2022-12-02T17:44:40.114Z,10.38
2022-12-02T17:47:09.451Z,10.77
2022-12-02T17:49:36.306Z,10.63
2022-12-02T17:52:20.618Z,9.80
2022-12-02T17:54:48.140Z,9.38
2022-12-02T17:57:14.941Z,9.10
2022-12-02T17:59:41.699Z,9.25
2022-12-02T18:02:12.056Z,8.93
2022-12-02T18:04:43.916Z,9.45
2022-12-02T18:07:11.479Z,9.07
2022-12-02T18:09:38.524Z,9.60
2022-12-02T18:12:06.289Z,8.98
2022-12-02T18:14:33.069Z,10.57
2022-12-02T18:17:00.079Z,8.70
2022-12-02T18:19:27.025Z,7.90
2022-12-02T18:21:53.766Z,9.45
2022-12-02T18:24:20.920Z,8.43
2022-12-02T18:26:47.668Z,8.38
2022-12-02T18:29:14.472Z,8.82
2022-12-02T18:31:41.230Z,6.13
2022-12-02T18:34:07.943Z,7.25
2022-12-02T18:36:34.665Z,6.50
2022-12-02T18:39:01.448Z,7.28
2022-12-02T18:41:28.424Z,8.18
2022-12-02T18:43:55.326Z,9.02
2022-12-02T18:46:22.140Z,7.22
2022-12-02T18:48:48.926Z,7.28
2022-12-02T18:51:15.677Z,7.35
2022-12-02T18:53:42.411Z,5.80
2022-12-02T18:56:09.120Z,7.10
2022-12-02T18:58:35.834Z,6.60
2022-12-02T19:01:02.754Z,5.70
2022-12-02T19:03:29.591Z,5.90
2022-12-02T19:05:56.317Z,6.18
2022-12-02T19:08:23.094Z,6.50
2022-12-02T19:10:49.857Z,5.65
2022-12-02T19:13:20.161Z,5.90
2022-12-02T19:15:47.029Z,5.32
2022-12-02T19:18:14.300Z,5.65
2022-12-02T19:20:41.184Z,6.90
2022-12-02T19:23:07.928Z,8.05
2022-12-02T19:25:37.661Z,6.50
2022-12-02T19:28:09.356Z,6.30
2022-12-02T19:30:36.126Z,6.40
2022-12-02T19:33:02.890Z,5.93
2022-12-02T19:35:29.681Z,5.55
2022-12-02T19:38:02.654Z,5.32
2022-12-02T19:40:37.965Z,6.32
2022-12-02T19:43:07.677Z,5.65
2022-12-02T19:45:34.472Z,5.28
2022-12-02T19:48:01.336Z,5.70
2022-12-02T19:50:28.147Z,5.68
2022-12-02T19:52:54.887Z,5.75
2022-12-02T19:55:21.654Z,6.38
2022-12-02T19:57:48.425Z,5.30
2022-12-02T20:00:16.003Z,6.50
2022-12-02T20:02:42.903Z,6.57
2022-12-02T20:05:12.423Z,6.57
2022-12-02T20:07:39.283Z,6.80
2022-12-02T20:10:06.983Z,4.90
2022-12-02T20:12:33.710Z,5.88
2022-12-02T20:15:00.492Z,5.13
2022-12-02T20:17:27.210Z,4.93
2022-12-02T20:19:53.960Z,5.97
2022-12-02T20:22:24.829Z,4.97
2022-12-02T20:24:51.905Z,4.90
2022-12-02T20:27:19.352Z,5.68
2022-12-02T20:29:46.086Z,4.68
2022-12-02T20:32:12.803Z,5.78
2022-12-02T20:34:41.054Z,5.93
2022-12-02T20:37:08.481Z,5.07
2022-12-02T20:39:35.578Z,5.45
2022-12-02T20:42:02.593Z,4.75
2022-12-02T20:44:31.336Z,5.18
2022-12-02T20:46:58.436Z,4.60
2022-12-02T20:49:25.209Z,5.15
2022-12-02T20:51:52.336Z,5.50
2022-12-02T20:54:19.404Z,4.90
2022-12-02T20:56:46.891Z,5.05
2022-12-02T20:59:13.637Z,4.70
2022-12-02T21:01:40.913Z,4.85
2022-12-02T21:04:11.262Z,5.28
2022-12-02T21:06:38.163Z,6.57
2022-12-02T21:09:05.858Z,5.43
2022-12-02T21:11:33.069Z,5.45
2022-12-02T21:14:00.071Z,5.30
2022-12-02T21:16:26.953Z,5.32
2022-12-02T21:18:53.958Z,5.32
2022-12-02T21:21:20.925Z,6.15
2022-12-02T21:23:47.892Z,5.85
2022-12-02T21:26:14.782Z,5.20
2022-12-02T21:28:41.510Z,5.93
2022-12-02T21:31:08.299Z,5.97
2022-12-02T21:33:35.092Z,5.90
2022-12-02T21:36:01.846Z,5.60
2022-12-02T21:38:28.820Z,5.82
2022-12-02T21:40:55.584Z,5.75
2022-12-02T21:43:23.181Z,5.30
2022-12-02T21:45:50.218Z,6.00
2022-12-02T21:48:17.750Z,4.93
2022-12-02T21:50:44.670Z,5.97
2022-12-02T21:53:11.407Z,6.75
2022-12-02T21:55:38.173Z,6.45
2022-12-02T21:58:05.216Z,6.20
2022-12-02T22:00:32.199Z,5.55
2022-12-02T22:02:59.968Z,6.25
2022-12-02T22:05:28.802Z,6.05
2022-12-02T22:07:55.778Z,5.38
2022-12-02T22:10:26.566Z,5.95
2022-12-02T22:12:53.415Z,6.22
2022-12-02T22:15:21.297Z,7.00
2022-12-02T22:17:48.210Z,7.75
2022-12-02T22:20:15.231Z,6.57
2022-12-02T22:22:42.055Z,6.57
2022-12-02T22:25:09.408Z,7.55
2022-12-02T22:27:36.149Z,7.10
2022-12-02T22:30:03.102Z,6.18
2022-12-02T22:32:29.869Z,6.03
2022-12-02T22:34:56.823Z,6.75
2022-12-02T22:37:23.665Z,6.80
2022-12-02T22:39:50.431Z,7.45
2022-12-02T22:42:17.218Z,8.18
2022-12-02T22:44:43.997Z,6.55
2022-12-02T22:47:10.804Z,6.93
2022-12-02T22:49:38.251Z,6.80
2022-12-02T22:52:05.291Z,6.78
2022-12-02T22:54:32.001Z,7.07
2022-12-02T22:56:58.733Z,6.72
2022-12-02T22:59:25.458Z,6.70
2022-12-02T23:01:52.331Z,6.80
2022-12-02T23:04:19.230Z,6.78
2022-12-02T23:06:45.967Z,7.00
2022-12-02T23:09:12.971Z,7.40
2022-12-02T23:11:39.723Z,7.13
2022-12-02T23:14:06.676Z,6.88
2022-12-02T23:16:33.437Z,7.10
2022-12-02T23:19:00.276Z,8.02
2022-12-02T23:21:27.034Z,7.53
2022-12-02T23:23:54.052Z,7.13
2022-12-02T23:26:20.857Z,8.52
2022-12-02T23:28:47.641Z,6.85
2022-12-02T23:31:14.442Z,7.57
2022-12-02T23:33:41.402Z,8.32
2022-12-02T23:36:08.508Z,6.95
2022-12-02T23:38:35.319Z,6.78
2022-12-02T23:41:02.114Z,8.20
2022-12-02T23:43:29.177Z,7.80
2022-12-02T23:45:56.008Z,7.70
2022-12-02T23:48:22.891Z,7.60
2022-12-02T23:50:49.630Z,8.80
2022-12-02T23:53:16.355Z,8.98
2022-12-02T23:55:43.147Z,8.15
2022-12-02T23:58:09.904Z,7.43
